createdAt,value
2018-12-29T00:00:37.407Z,2.43
2018-12-29T00:01:37.343Z,2.38
2018-12-29T00:02:37.323Z,2.42
2018-12-29T00:03:37.336Z,2.36
2018-12-29T00:04:37.334Z,2.39
2018-12-29T00:05:37.298Z,2.39
2018-12-29T00:06:37.306Z,2.43
2018-12-29T00:07:37.293Z,2.41
2018-12-29T00:08:37.315Z,2.43
2018-12-29T00:09:37.264Z,2.38
2018-12-29T00:10:37.228Z,2.41
2018-12-29T00:11:37.234Z,2.38
2018-12-29T00:12:37.267Z,2.42
2018-12-29T00:13:37.234Z,2.31
2018-12-29T00:14:37.221Z,2.34
2018-12-29T00:15:37.176Z,2.43
2018-12-29T00:16:37.208Z,2.48
2018-12-29T00:17:37.150Z,2.36
2018-12-29T00:18:37.213Z,2.49
2018-12-29T00:19:37.142Z,2.45
2018-12-29T00:20:37.146Z,2.34
2018-12-29T00:21:37.171Z,2.42
2018-12-29T00:22:37.111Z,2.52
2018-12-29T00:23:37.127Z,2.48
2018-12-29T00:24:37.132Z,2.46
2018-12-29T00:25:37.105Z,2.52
2018-12-29T00:26:37.089Z,2.46
2018-12-29T00:27:37.061Z,2.49
2018-12-29T00:28:37.098Z,2.46
2018-12-29T00:29:37.027Z,2.49
2018-12-29T00:30:37.037Z,2.52
2018-12-29T00:31:36.995Z,2.42
2018-12-29T00:32:37.005Z,2.46
2018-12-29T00:33:36.990Z,2.52
2018-12-29T00:34:37.010Z,2.53
2018-12-29T00:35:37.123Z,2.54
2018-12-29T00:36:36.975Z,2.60
2018-12-29T00:37:36.935Z,2.57
2018-12-29T00:38:36.935Z,2.56
2018-12-29T00:39:36.937Z,2.59
2018-12-29T00:40:37.025Z,2.54
2018-12-29T00:41:36.923Z,2.59
2018-12-29T00:42:36.948Z,2.56
2018-12-29T00:43:36.894Z,2.59
2018-12-29T00:44:36.896Z,2.60
2018-12-29T00:45:36.848Z,2.60
2018-12-29T00:46:36.827Z,2.54
2018-12-29T00:47:36.827Z,2.54
2018-12-29T00:48:36.906Z,2.60
2018-12-29T00:49:36.825Z,2.59
2018-12-29T00:50:36.815Z,2.53
2018-12-29T00:51:36.795Z,2.60
2018-12-29T00:52:36.763Z,2.54
2018-12-29T00:53:36.840Z,2.57
2018-12-29T00:54:36.745Z,2.52
2018-12-29T00:55:36.733Z,2.54
2018-12-29T00:56:36.755Z,2.61
2018-12-29T00:57:36.742Z,2.52
2018-12-29T00:58:36.749Z,2.60
2018-12-29T00:59:36.713Z,2.66
2018-12-29T01:00:36.704Z,2.56
2018-12-29T01:01:36.673Z,2.53
2018-12-29T01:02:36.692Z,2.60
2018-12-29T01:03:36.663Z,2.67
2018-12-29T01:04:36.661Z,2.61
2018-12-29T01:05:36.627Z,2.61
2018-12-29T01:06:36.658Z,2.67
2018-12-29T01:07:36.642Z,2.63
2018-12-29T01:08:36.607Z,2.61
2018-12-29T01:09:36.584Z,2.67
2018-12-29T01:10:36.617Z,2.66
2018-12-29T01:11:36.584Z,2.71
2018-12-29T01:12:36.574Z,2.69
2018-12-29T01:13:36.536Z,2.67
2018-12-29T01:14:36.576Z,2.66
2018-12-29T01:15:36.513Z,2.64
2018-12-29T01:16:36.547Z,2.64
2018-12-29T01:17:36.494Z,2.64
2018-12-29T01:18:36.505Z,2.66
2018-12-29T01:19:36.472Z,2.64
2018-12-29T01:20:36.479Z,2.63
2018-12-29T01:21:36.496Z,2.63
2018-12-29T01:22:36.456Z,2.60
2018-12-29T01:23:36.436Z,2.67
2018-12-29T01:24:36.437Z,2.56
2018-12-29T01:25:36.436Z,2.57
2018-12-29T01:26:36.399Z,2.69
2018-12-29T01:27:36.408Z,2.56
2018-12-29T01:28:36.368Z,2.63
2018-12-29T01:29:36.408Z,2.60
2018-12-29T01:30:36.356Z,2.63
2018-12-29T01:31:36.393Z,2.66
2018-12-29T01:32:36.332Z,2.67
2018-12-29T01:33:36.319Z,2.64
2018-12-29T01:34:36.312Z,2.66
2018-12-29T01:35:36.306Z,2.67
2018-12-29T01:36:36.298Z,2.67
2018-12-29T01:37:36.269Z,2.67
2018-12-29T01:38:36.297Z,2.64
2018-12-29T01:39:36.295Z,2.64
2018-12-29T01:40:36.235Z,2.64
2018-12-29T01:41:36.244Z,2.60
2018-12-29T01:42:36.335Z,2.61
2018-12-29T01:43:36.208Z,2.67
2018-12-29T01:44:36.199Z,2.67
2018-12-29T01:45:36.208Z,2.64
2018-12-29T01:46:36.188Z,2.67
2018-12-29T01:47:36.194Z,2.69
2018-12-29T01:48:36.209Z,2.64
2018-12-29T01:49:36.142Z,2.66
2018-12-29T01:50:36.123Z,2.66
2018-12-29T01:51:36.159Z,2.63
2018-12-29T01:52:36.149Z,2.67
2018-12-29T01:53:36.081Z,2.64
2018-12-29T01:54:36.087Z,2.66
2018-12-29T01:55:36.072Z,2.64
2018-12-29T01:56:36.148Z,2.66
2018-12-29T01:57:36.072Z,2.67
2018-12-29T01:58:36.051Z,2.67
2018-12-29T01:59:36.063Z,2.66
2018-12-29T02:00:36.013Z,2.66
2018-12-29T02:01:36.032Z,2.72
2018-12-29T02:02:36.030Z,2.69
2018-12-29T02:03:36.042Z,2.66
2018-12-29T02:04:35.957Z,2.69
2018-12-29T02:05:35.954Z,2.63
2018-12-29T02:06:36.040Z,2.72
2018-12-29T02:07:35.977Z,2.66
2018-12-29T02:08:35.965Z,2.66
2018-12-29T02:09:35.914Z,2.74
2018-12-29T02:10:35.911Z,2.69
2018-12-29T02:11:35.910Z,2.79
2018-12-29T02:12:35.899Z,2.72
2018-12-29T02:13:35.904Z,2.77
2018-12-29T02:14:35.871Z,2.71
2018-12-29T02:15:35.843Z,2.72
2018-12-29T02:16:35.864Z,2.72
2018-12-29T02:17:35.988Z,2.72
2018-12-29T02:18:35.832Z,2.77
2018-12-29T02:19:35.820Z,2.71
2018-12-29T02:20:35.797Z,2.75
2018-12-29T02:21:35.797Z,2.78
2018-12-29T02:22:35.780Z,2.74
2018-12-29T02:23:35.754Z,2.74
2018-12-29T02:24:35.789Z,2.75
2018-12-29T02:25:35.779Z,2.74
2018-12-29T02:26:35.729Z,2.79
2018-12-29T02:27:35.709Z,2.75
2018-12-29T02:28:35.717Z,2.77
2018-12-29T02:29:35.714Z,2.81
2018-12-29T02:30:35.677Z,2.78
2018-12-29T02:31:35.669Z,2.75
2018-12-29T02:32:35.651Z,2.82
2018-12-29T02:33:35.656Z,2.87
2018-12-29T02:34:35.657Z,2.82
2018-12-29T02:35:35.619Z,2.87
2018-12-29T02:36:35.603Z,2.87
2018-12-29T02:37:35.638Z,2.87
2018-12-29T02:38:35.622Z,2.85
2018-12-29T02:39:35.575Z,2.84
2018-12-29T02:40:35.606Z,2.96
2018-12-29T02:41:35.553Z,2.92
2018-12-29T02:42:35.553Z,2.90
2018-12-29T02:43:35.552Z,2.84
2018-12-29T02:44:35.545Z,2.87
2018-12-29T02:45:35.531Z,2.82
2018-12-29T02:46:35.524Z,2.89
2018-12-29T02:47:35.514Z,2.92
2018-12-29T02:48:35.494Z,2.82
2018-12-29T02:49:35.484Z,2.87
2018-12-29T02:50:35.543Z,2.95
2018-12-29T02:51:35.465Z,2.90
2018-12-29T02:52:35.472Z,2.87
2018-12-29T02:53:35.448Z,2.87
2018-12-29T02:54:35.412Z,2.92
2018-12-29T02:55:35.436Z,2.87
2018-12-29T02:56:35.404Z,2.85
2018-12-29T02:57:35.386Z,2.82
2018-12-29T02:58:35.359Z,2.89
2018-12-29T02:59:35.385Z,2.84
2018-12-29T03:00:35.398Z,2.90
2018-12-29T03:01:35.374Z,2.93
2018-12-29T03:02:35.344Z,2.92
2018-12-29T03:03:35.318Z,2.89
2018-12-29T03:04:35.314Z,2.87
2018-12-29T03:05:35.308Z,3.03
2018-12-29T03:06:35.317Z,3.00
2018-12-29T03:07:35.305Z,2.97
2018-12-29T03:08:35.283Z,3.00
2018-12-29T03:09:35.273Z,3.08
2018-12-29T03:10:35.239Z,3.05
2018-12-29T03:11:35.219Z,3.06
2018-12-29T03:12:35.229Z,3.13
2018-12-29T03:13:35.186Z,3.13
2018-12-29T03:14:35.202Z,3.03
2018-12-29T03:15:41.456Z,3.05
2018-12-29T03:16:36.215Z,2.97
2018-12-29T03:17:35.162Z,2.89
2018-12-29T03:18:35.178Z,2.97
2018-12-29T03:19:35.123Z,2.97
2018-12-29T03:20:35.118Z,3.02
2018-12-29T03:21:35.157Z,2.90
2018-12-29T03:22:35.137Z,2.89
2018-12-29T03:23:35.089Z,2.89
2018-12-29T03:24:35.180Z,2.89
2018-12-29T03:25:35.121Z,2.85
2018-12-29T03:26:35.067Z,2.89
2018-12-29T03:27:35.135Z,2.89
2018-12-29T03:28:35.058Z,2.95
2018-12-29T03:29:35.133Z,2.92
2018-12-29T03:30:35.032Z,2.87
2018-12-29T03:31:35.049Z,2.93
2018-12-29T03:32:35.012Z,2.96
2018-12-29T03:33:35.004Z,2.90
2018-12-29T03:34:35.010Z,2.84
2018-12-29T03:35:34.974Z,2.90
2018-12-29T03:36:34.979Z,2.89
2018-12-29T03:37:34.933Z,2.99
2018-12-29T03:38:34.927Z,2.92
2018-12-29T03:39:34.918Z,2.90
2018-12-29T03:40:34.931Z,2.90
2018-12-29T03:41:34.874Z,2.99
2018-12-29T03:42:34.951Z,2.97
2018-12-29T03:43:34.894Z,2.95
2018-12-29T03:44:34.868Z,2.92
2018-12-29T03:45:34.834Z,2.89
2018-12-29T03:46:34.881Z,2.87
2018-12-29T03:47:34.845Z,2.99
2018-12-29T03:48:34.824Z,2.96
2018-12-29T03:49:34.790Z,2.96
2018-12-29T03:50:34.790Z,2.93
2018-12-29T03:51:34.822Z,3.00
2018-12-29T03:52:34.782Z,3.00
2018-12-29T03:53:34.752Z,3.02
2018-12-29T03:54:34.767Z,2.99
2018-12-29T03:55:34.737Z,2.99
2018-12-29T03:56:34.737Z,3.05
2018-12-29T03:57:34.760Z,3.00
2018-12-29T03:58:34.712Z,3.05
2018-12-29T03:59:34.715Z,3.05
2018-12-29T04:00:34.712Z,3.06
2018-12-29T04:01:34.683Z,3.03
2018-12-29T04:02:34.662Z,3.00
2018-12-29T04:03:34.670Z,2.97
2018-12-29T04:04:34.630Z,3.08
2018-12-29T04:05:34.631Z,3.11
2018-12-29T04:06:34.707Z,3.03
2018-12-29T04:07:34.613Z,3.13
2018-12-29T04:08:34.607Z,3.02
2018-12-29T04:09:34.585Z,3.15
2018-12-29T04:10:34.554Z,3.10
2018-12-29T04:11:34.578Z,3.03
2018-12-29T04:12:34.541Z,3.08
2018-12-29T04:13:34.555Z,3.05
2018-12-29T04:14:34.580Z,3.03
2018-12-29T04:15:34.537Z,3.11
2018-12-29T04:16:34.512Z,3.10
2018-12-29T04:17:34.493Z,3.03
2018-12-29T04:18:34.506Z,3.10
2018-12-29T04:19:34.491Z,3.11
2018-12-29T04:20:34.468Z,3.10
2018-12-29T04:21:34.426Z,3.08
2018-12-29T04:22:34.455Z,3.15
2018-12-29T04:23:34.416Z,3.10
2018-12-29T04:24:34.445Z,3.11
2018-12-29T04:25:34.402Z,3.08
2018-12-29T04:26:34.426Z,3.13
2018-12-29T04:27:34.399Z,3.11
2018-12-29T04:28:34.373Z,3.15
2018-12-29T04:29:34.409Z,3.13
2018-12-29T04:30:34.334Z,3.14
2018-12-29T04:31:34.327Z,3.08
2018-12-29T04:32:34.313Z,3.14
2018-12-29T04:33:34.364Z,3.14
2018-12-29T04:34:34.330Z,3.14
2018-12-29T04:35:34.282Z,3.14
2018-12-29T04:36:34.273Z,3.08
2018-12-29T04:37:34.276Z,3.15
2018-12-29T04:38:34.248Z,3.08
2018-12-29T04:39:34.283Z,3.05
2018-12-29T04:40:34.220Z,3.08
2018-12-29T04:41:34.218Z,3.11
2018-12-29T04:42:34.209Z,3.08
2018-12-29T04:43:34.181Z,3.14
2018-12-29T04:44:34.212Z,3.03
2018-12-29T04:45:34.181Z,3.06
2018-12-29T04:46:34.193Z,3.11
2018-12-29T04:47:34.152Z,3.08
2018-12-29T04:48:34.168Z,3.06
2018-12-29T04:49:34.139Z,3.14
2018-12-29T04:50:34.126Z,3.06
2018-12-29T04:51:34.145Z,3.14
2018-12-29T04:52:34.096Z,3.10
2018-12-29T04:53:34.092Z,2.99
2018-12-29T04:54:34.056Z,3.08
2018-12-29T04:55:34.095Z,3.06
2018-12-29T04:56:34.065Z,3.08
2018-12-29T04:57:34.028Z,3.11
2018-12-29T04:58:34.036Z,2.97
2018-12-29T04:59:34.019Z,3.11
2018-12-29T05:00:34.030Z,3.03
2018-12-29T05:01:34.021Z,3.03
2018-12-29T05:02:33.994Z,3.05
2018-12-29T05:03:34.009Z,3.06
2018-12-29T05:04:33.989Z,3.11
2018-12-29T05:05:33.987Z,3.05
2018-12-29T05:06:34.013Z,2.97
2018-12-29T05:07:33.929Z,3.11
2018-12-29T05:08:33.956Z,3.02
2018-12-29T05:09:33.895Z,3.06
2018-12-29T05:10:33.905Z,3.03
2018-12-29T05:11:33.913Z,3.11
2018-12-29T05:12:33.866Z,3.11
2018-12-29T05:13:33.859Z,2.95
2018-12-29T05:14:33.841Z,3.05
2018-12-29T05:15:33.847Z,3.10
2018-12-29T05:16:33.841Z,3.10
2018-12-29T05:17:33.804Z,2.92
2018-12-29T05:18:33.794Z,2.97
2018-12-29T05:19:33.777Z,3.10
2018-12-29T05:20:33.815Z,3.10
2018-12-29T05:21:33.762Z,3.05
2018-12-29T05:22:33.803Z,3.08
2018-12-29T05:23:33.789Z,3.13
2018-12-29T05:24:33.734Z,3.11
2018-12-29T05:25:33.726Z,3.18
2018-12-29T05:26:33.745Z,3.10
2018-12-29T05:27:33.700Z,3.11
2018-12-29T05:28:33.744Z,3.10
2018-12-29T05:29:33.689Z,3.14
2018-12-29T05:30:33.661Z,3.10
2018-12-29T05:31:33.672Z,3.15
2018-12-29T05:32:33.655Z,3.14
2018-12-29T05:33:33.647Z,3.11
2018-12-29T05:34:33.659Z,3.08
2018-12-29T05:35:33.607Z,3.14
2018-12-29T05:36:33.600Z,3.06
2018-12-29T05:37:33.604Z,3.14
2018-12-29T05:38:33.581Z,3.11
2018-12-29T05:39:33.574Z,3.08
2018-12-29T05:40:33.554Z,3.06
2018-12-29T05:41:33.569Z,3.06
2018-12-29T05:42:33.569Z,3.10
2018-12-29T05:43:33.503Z,3.08
2018-12-29T05:44:33.531Z,3.13
2018-12-29T05:45:33.536Z,3.13
2018-12-29T05:46:33.499Z,3.06
2018-12-29T05:47:33.463Z,3.05
2018-12-29T05:48:33.517Z,3.03
2018-12-29T05:49:33.449Z,2.99
2018-12-29T05:50:33.478Z,3.03
2018-12-29T05:51:33.465Z,3.06
2018-12-29T05:52:33.445Z,3.00
2018-12-29T05:53:33.406Z,3.13
2018-12-29T05:54:33.388Z,3.11
2018-12-29T05:55:34.476Z,3.11
2018-12-29T05:56:33.456Z,3.15
2018-12-29T05:57:33.409Z,3.14
2018-12-29T05:58:33.386Z,3.10
2018-12-29T05:59:33.375Z,3.14
2018-12-29T06:00:33.378Z,3.14
2018-12-29T06:01:33.306Z,3.15
2018-12-29T06:02:33.304Z,3.15
2018-12-29T06:03:33.318Z,3.17
2018-12-29T06:04:33.309Z,3.10
2018-12-29T06:05:33.666Z,3.14
2018-12-29T06:06:33.284Z,3.17
2018-12-29T06:07:33.286Z,3.14
2018-12-29T06:08:33.235Z,3.13
2018-12-29T06:09:33.287Z,3.15
2018-12-29T06:10:33.258Z,3.14
2018-12-29T06:11:33.206Z,3.11
2018-12-29T06:12:33.206Z,3.23
2018-12-29T06:13:33.252Z,3.21
2018-12-29T06:14:33.176Z,3.28
2018-12-29T06:15:33.187Z,3.10
2018-12-29T06:16:33.198Z,3.13
2018-12-29T06:17:33.166Z,3.11
2018-12-29T06:18:33.123Z,3.18
2018-12-29T06:19:33.162Z,3.21
2018-12-29T06:20:33.113Z,3.23
2018-12-29T06:21:33.092Z,3.15
2018-12-29T06:22:33.094Z,3.14
2018-12-29T06:23:33.075Z,3.13
2018-12-29T06:24:33.088Z,3.24
2018-12-29T06:25:33.057Z,3.18
2018-12-29T06:26:33.050Z,3.23
2018-12-29T06:27:33.041Z,3.24
2018-12-29T06:28:33.008Z,3.24
2018-12-29T06:29:33.123Z,3.23
2018-12-29T06:30:33.015Z,3.23
2018-12-29T06:31:32.975Z,3.23
2018-12-29T06:32:32.978Z,3.24
2018-12-29T06:33:32.958Z,3.14
2018-12-29T06:34:32.943Z,3.23
2018-12-29T06:35:32.959Z,3.21
2018-12-29T06:36:32.960Z,3.14
2018-12-29T06:37:32.923Z,3.21
2018-12-29T06:38:32.905Z,3.24
2018-12-29T06:39:32.924Z,3.29
2018-12-29T06:40:32.885Z,3.23
2018-12-29T06:41:32.902Z,3.21
2018-12-29T06:42:32.876Z,3.29
2018-12-29T06:43:32.877Z,3.29
2018-12-29T06:44:32.852Z,3.20
2018-12-29T06:45:32.820Z,3.28
2018-12-29T06:46:35.137Z,3.24
2018-12-29T06:47:32.865Z,3.26
2018-12-29T06:48:32.817Z,3.21
2018-12-29T06:49:32.783Z,3.14
2018-12-29T06:50:32.762Z,3.28
2018-12-29T06:51:32.760Z,3.29
2018-12-29T06:52:32.774Z,3.31
2018-12-29T06:53:32.780Z,3.31
2018-12-29T06:54:32.737Z,3.23
2018-12-29T06:55:33.255Z,3.26
2018-12-29T06:56:32.760Z,3.32
2018-12-29T06:57:32.710Z,3.28
2018-12-29T06:58:32.719Z,3.36
2018-12-29T06:59:32.665Z,3.26
2018-12-29T07:00:32.686Z,3.24
2018-12-29T07:01:32.703Z,3.26
2018-12-29T07:02:32.665Z,3.26
2018-12-29T07:03:32.706Z,3.31
2018-12-29T07:04:32.647Z,3.26
2018-12-29T07:05:32.599Z,3.24
2018-12-29T07:06:32.644Z,3.28
2018-12-29T07:07:32.575Z,3.18
2018-12-29T07:08:32.628Z,3.21
2018-12-29T07:09:32.599Z,3.21
2018-12-29T07:10:32.563Z,3.32
2018-12-29T07:11:32.585Z,3.26
2018-12-29T07:12:32.552Z,3.29
2018-12-29T07:13:32.533Z,3.33
2018-12-29T07:14:32.543Z,3.31
2018-12-29T07:15:32.504Z,3.31
2018-12-29T07:16:32.507Z,3.28
2018-12-29T07:17:32.492Z,3.33
2018-12-29T07:18:32.488Z,3.29
2018-12-29T07:19:32.495Z,3.39
2018-12-29T07:20:32.503Z,3.31
2018-12-29T07:21:32.433Z,3.36
2018-12-29T07:22:32.481Z,3.33
2018-12-29T07:23:32.423Z,3.33
2018-12-29T07:24:32.390Z,3.39
2018-12-29T07:25:32.372Z,3.42
2018-12-29T07:26:32.432Z,3.39
2018-12-29T07:27:32.398Z,3.43
2018-12-29T07:28:32.491Z,3.45
2018-12-29T07:29:38.260Z,3.40
2018-12-29T07:30:33.324Z,3.40
2018-12-29T07:31:32.316Z,3.33
2018-12-29T07:32:32.327Z,3.47
2018-12-29T07:33:32.331Z,3.42
2018-12-29T07:34:32.283Z,3.33
2018-12-29T07:35:32.281Z,3.45
2018-12-29T07:36:32.276Z,3.42
2018-12-29T07:37:32.254Z,3.47
2018-12-29T07:38:32.225Z,3.40
2018-12-29T07:39:32.230Z,3.40
2018-12-29T07:40:32.205Z,3.36
2018-12-29T07:41:32.236Z,3.48
2018-12-29T07:42:32.192Z,3.32
2018-12-29T07:43:32.167Z,3.42
2018-12-29T07:44:32.217Z,3.33
2018-12-29T07:45:32.163Z,3.39
2018-12-29T07:46:32.201Z,3.40
2018-12-29T07:47:32.226Z,3.39
2018-12-29T07:48:32.132Z,3.42
2018-12-29T07:49:32.134Z,3.43
2018-12-29T07:50:32.109Z,3.48
2018-12-29T07:51:32.079Z,3.40
2018-12-29T07:52:32.065Z,3.43
2018-12-29T07:53:32.074Z,3.47
2018-12-29T07:54:32.111Z,3.39
2018-12-29T07:55:32.039Z,3.45
2018-12-29T07:56:32.046Z,3.45
2018-12-29T07:57:32.015Z,3.47
2018-12-29T07:58:32.012Z,3.40
2018-12-29T07:59:32.037Z,3.40
2018-12-29T08:00:31.979Z,3.36
2018-12-29T08:01:31.984Z,3.42
2018-12-29T08:02:31.968Z,3.29
2018-12-29T08:03:31.972Z,3.43
2018-12-29T08:04:31.939Z,3.35
2018-12-29T08:05:32.487Z,3.42
2018-12-29T08:06:31.911Z,3.48
2018-12-29T08:07:31.937Z,3.36
2018-12-29T08:08:31.925Z,3.35
2018-12-29T08:09:31.917Z,3.33
2018-12-29T08:10:31.875Z,3.28
2018-12-29T08:11:31.862Z,3.29
2018-12-29T08:12:31.872Z,3.29
2018-12-29T08:13:31.885Z,3.29
2018-12-29T08:14:31.915Z,3.33
2018-12-29T08:15:31.831Z,3.36
2018-12-29T08:16:31.800Z,3.35
2018-12-29T08:17:31.825Z,3.28
2018-12-29T08:18:31.809Z,3.33
2018-12-29T08:19:31.803Z,3.31
2018-12-29T08:20:31.757Z,3.35
2018-12-29T08:21:31.752Z,3.40
2018-12-29T08:22:31.753Z,3.36
2018-12-29T08:23:31.794Z,3.36
2018-12-29T08:24:31.746Z,3.39
2018-12-29T08:25:31.744Z,3.29
2018-12-29T08:26:31.686Z,3.23
2018-12-29T08:27:31.728Z,3.32
2018-12-29T08:28:31.672Z,3.39
2018-12-29T08:29:31.656Z,3.31
2018-12-29T08:30:31.650Z,3.32
2018-12-29T08:31:31.674Z,3.32
2018-12-29T08:32:31.670Z,3.42
2018-12-29T08:33:31.635Z,3.39
2018-12-29T08:34:31.648Z,3.39
2018-12-29T08:35:31.622Z,3.47
2018-12-29T08:36:31.627Z,3.45
2018-12-29T08:37:31.596Z,3.42
2018-12-29T08:38:31.548Z,3.51
2018-12-29T08:39:31.555Z,3.43
2018-12-29T08:40:31.578Z,3.39
2018-12-29T08:41:31.524Z,3.29
2018-12-29T08:42:31.533Z,3.42
2018-12-29T08:43:31.535Z,3.45
2018-12-29T08:44:31.532Z,3.42
2018-12-29T08:45:31.474Z,3.48
2018-12-29T08:46:31.475Z,3.42
2018-12-29T08:47:31.474Z,3.36
2018-12-29T08:48:31.437Z,3.43
2018-12-29T08:49:31.539Z,3.39
2018-12-29T08:50:31.438Z,3.36
2018-12-29T08:51:31.414Z,3.45
2018-12-29T08:52:31.412Z,3.31
2018-12-29T08:53:31.414Z,3.42
2018-12-29T08:54:31.368Z,3.39
2018-12-29T08:55:31.402Z,3.42
2018-12-29T08:56:31.368Z,3.45
2018-12-29T08:57:31.339Z,3.50
2018-12-29T08:58:31.386Z,3.29
2018-12-29T08:59:31.330Z,3.58
2018-12-29T09:00:31.328Z,3.45
2018-12-29T09:01:31.312Z,3.52
2018-12-29T09:02:31.305Z,3.52
2018-12-29T09:03:31.297Z,3.52
2018-12-29T09:04:31.265Z,3.52
2018-12-29T09:05:31.252Z,3.48
2018-12-29T09:06:31.262Z,3.48
2018-12-29T09:07:31.283Z,3.47
2018-12-29T09:08:31.254Z,3.50
2018-12-29T09:09:31.287Z,3.50
2018-12-29T09:10:31.191Z,3.51
2018-12-29T09:11:31.210Z,3.50
2018-12-29T09:12:31.197Z,3.62
2018-12-29T09:13:31.182Z,3.60
2018-12-29T09:14:31.155Z,3.61
2018-12-29T09:15:31.172Z,3.61
2018-12-29T09:16:31.154Z,3.54
2018-12-29T09:17:31.122Z,3.54
2018-12-29T09:18:31.145Z,3.70
2018-12-29T09:19:31.111Z,3.69
2018-12-29T09:20:31.136Z,3.68
2018-12-29T09:21:31.088Z,3.75
2018-12-29T09:22:31.091Z,3.68
2018-12-29T09:23:31.120Z,3.69
2018-12-29T09:24:31.034Z,3.73
2018-12-29T09:25:31.031Z,3.70
2018-12-29T09:26:31.026Z,3.73
2018-12-29T09:27:31.004Z,3.75
2018-12-29T09:28:31.022Z,3.76
2018-12-29T09:29:31.006Z,3.79
2018-12-29T09:30:30.988Z,3.79
2018-12-29T09:31:31.031Z,3.84
2018-12-29T09:32:30.966Z,3.80
2018-12-29T09:33:30.936Z,3.83
2018-12-29T09:34:30.933Z,3.86
2018-12-29T09:35:30.916Z,3.90
2018-12-29T09:36:30.914Z,3.84
2018-12-29T09:37:30.892Z,3.86
2018-12-29T09:38:30.878Z,3.86
2018-12-29T09:39:30.869Z,3.87
2018-12-29T09:40:30.907Z,3.90
2018-12-29T09:41:30.872Z,3.83
2018-12-29T09:42:30.846Z,3.96
2018-12-29T09:43:30.860Z,3.93
2018-12-29T09:44:30.868Z,3.94
2018-12-29T09:45:30.858Z,3.91
2018-12-29T09:46:30.801Z,3.96
2018-12-29T09:47:30.798Z,3.91
2018-12-29T09:48:30.773Z,4.02
2018-12-29T09:49:30.777Z,3.94
2018-12-29T09:50:30.752Z,4.04
2018-12-29T09:51:30.775Z,3.98
2018-12-29T09:52:30.751Z,4.05
2018-12-29T09:53:30.730Z,4.11
2018-12-29T09:54:30.722Z,4.09
2018-12-29T09:55:30.750Z,4.11
2018-12-29T09:56:30.738Z,4.06
2018-12-29T09:57:30.730Z,4.09
2018-12-29T09:58:30.670Z,4.02
2018-12-29T09:59:30.667Z,4.14
2018-12-29T10:00:30.665Z,4.05
2018-12-29T10:01:30.684Z,4.08
2018-12-29T10:02:30.614Z,4.08
2018-12-29T10:03:30.614Z,4.06
2018-12-29T10:04:30.616Z,4.14
2018-12-29T10:05:30.602Z,4.20
2018-12-29T10:06:30.660Z,4.18
2018-12-29T10:07:30.563Z,4.24
2018-12-29T10:08:30.612Z,4.12
2018-12-29T10:09:30.575Z,4.22
2018-12-29T10:10:30.573Z,4.22
2018-12-29T10:11:30.530Z,4.22
2018-12-29T10:12:30.501Z,4.26
2018-12-29T10:13:30.522Z,4.26
2018-12-29T10:14:30.513Z,4.27
2018-12-29T10:15:30.465Z,4.34
2018-12-29T10:16:30.471Z,4.30
2018-12-29T10:17:30.502Z,4.30
2018-12-29T10:18:30.437Z,4.27
2018-12-29T10:19:30.425Z,4.32
2018-12-29T10:20:30.409Z,4.33
2018-12-29T10:21:30.422Z,4.36
2018-12-29T10:22:30.423Z,4.37
2018-12-29T10:23:30.386Z,4.36
2018-12-29T10:24:30.362Z,4.40
2018-12-29T10:25:30.363Z,4.36
2018-12-29T10:26:30.344Z,4.37
2018-12-29T10:27:30.374Z,4.44
2018-12-29T10:28:30.366Z,4.47
2018-12-29T10:29:30.335Z,4.48
2018-12-29T10:30:30.320Z,4.51
2018-12-29T10:31:30.298Z,4.55
2018-12-29T10:32:30.287Z,4.48
2018-12-29T10:33:30.269Z,4.60
2018-12-29T10:34:30.309Z,4.52
2018-12-29T10:35:30.291Z,4.58
2018-12-29T10:36:30.241Z,4.52
2018-12-29T10:37:30.238Z,4.51
2018-12-29T10:38:30.249Z,4.52
2018-12-29T10:39:30.240Z,4.52
2018-12-29T10:40:30.188Z,4.59
2018-12-29T10:41:30.188Z,4.52
2018-12-29T10:42:30.191Z,4.55
2018-12-29T10:43:30.163Z,4.62
2018-12-29T10:44:30.180Z,4.52
2018-12-29T10:45:30.132Z,4.55
2018-12-29T10:46:30.164Z,4.58
2018-12-29T10:47:34.529Z,4.59
2018-12-29T10:48:30.132Z,4.52
2018-12-29T10:49:30.121Z,4.51
2018-12-29T10:50:30.112Z,4.55
2018-12-29T10:51:30.096Z,4.55
2018-12-29T10:52:30.096Z,4.54
2018-12-29T10:53:30.042Z,4.60
2018-12-29T10:54:30.060Z,4.52
2018-12-29T10:55:30.016Z,4.63
2018-12-29T10:56:30.054Z,4.65
2018-12-29T10:57:30.016Z,4.59
2018-12-29T10:58:30.044Z,4.73
2018-12-29T10:59:30.029Z,4.60
2018-12-29T11:00:35.007Z,4.66
2018-12-29T11:01:30.979Z,4.60
2018-12-29T11:02:29.972Z,4.62
2018-12-29T11:03:29.955Z,4.70
2018-12-29T11:04:29.951Z,4.65
2018-12-29T11:05:29.928Z,4.72
2018-12-29T11:06:29.921Z,4.69
2018-12-29T11:07:29.893Z,4.66
2018-12-29T11:08:29.908Z,4.70
2018-12-29T11:09:29.865Z,4.72
2018-12-29T11:10:29.846Z,4.67
2018-12-29T11:11:29.916Z,4.65
2018-12-29T11:12:29.863Z,4.70
2018-12-29T11:13:29.864Z,4.69
2018-12-29T11:14:29.820Z,4.70
2018-12-29T11:15:29.822Z,4.78
2018-12-29T11:16:29.778Z,4.77
2018-12-29T11:17:29.781Z,4.77
2018-12-29T11:18:29.820Z,4.78
2018-12-29T11:19:29.785Z,4.73
2018-12-29T11:20:29.766Z,4.84
2018-12-29T11:21:29.735Z,4.88
2018-12-29T11:22:29.712Z,4.85
2018-12-29T11:23:29.760Z,4.86
2018-12-29T11:24:29.692Z,4.82
2018-12-29T11:25:29.725Z,4.75
2018-12-29T11:26:29.687Z,4.78
2018-12-29T11:27:29.678Z,4.75
2018-12-29T11:28:29.653Z,4.80
2018-12-29T11:29:29.698Z,4.73
2018-12-29T11:30:29.648Z,4.70
2018-12-29T11:31:29.656Z,4.69
2018-12-29T11:32:29.656Z,4.63
2018-12-29T11:33:29.592Z,4.63
2018-12-29T11:34:29.604Z,4.62
2018-12-29T11:35:29.623Z,4.60
2018-12-29T11:36:29.621Z,4.67
2018-12-29T11:37:29.567Z,4.66
2018-12-29T11:38:29.540Z,4.75
2018-12-29T11:39:29.529Z,4.80
2018-12-29T11:40:29.538Z,4.84
2018-12-29T11:41:29.508Z,4.80
2018-12-29T11:42:29.520Z,4.84
2018-12-29T11:43:29.474Z,4.78
2018-12-29T11:44:29.479Z,4.84
2018-12-29T11:45:29.492Z,4.91
2018-12-29T11:46:29.442Z,4.84
2018-12-29T11:47:29.446Z,4.92
2018-12-29T11:48:29.447Z,4.92
2018-12-29T11:49:29.408Z,4.89
2018-12-29T11:50:29.449Z,4.99
2018-12-29T11:51:29.415Z,4.97
2018-12-29T11:52:29.387Z,5.00
2018-12-29T11:53:29.364Z,4.94
2018-12-29T11:54:29.397Z,5.02
2018-12-29T11:55:29.344Z,5.03
2018-12-29T11:56:29.362Z,4.97
2018-12-29T11:57:29.356Z,5.07
2018-12-29T11:58:29.340Z,5.09
2018-12-29T11:59:29.347Z,5.09
2018-12-29T12:00:29.282Z,5.07
2018-12-29T12:01:29.308Z,5.12
2018-12-29T12:02:29.264Z,5.09
2018-12-29T12:03:29.327Z,5.12
2018-12-29T12:04:29.285Z,5.18
2018-12-29T12:05:29.235Z,5.24
2018-12-29T12:06:29.259Z,5.18
2018-12-29T12:07:29.272Z,5.21
2018-12-29T12:08:29.217Z,5.18
2018-12-29T12:09:30.322Z,5.30
2018-12-29T12:10:29.211Z,5.30
2018-12-29T12:11:29.188Z,5.30
2018-12-29T12:12:29.163Z,5.25
2018-12-29T12:13:29.219Z,5.39
2018-12-29T12:14:29.184Z,5.42
2018-12-29T12:15:29.129Z,5.43
2018-12-29T12:16:29.140Z,5.38
2018-12-29T12:17:29.108Z,5.49
2018-12-29T12:18:29.086Z,5.54
2018-12-29T12:19:29.122Z,5.56
2018-12-29T12:20:29.066Z,5.65
2018-12-29T12:21:29.150Z,5.68
2018-12-29T12:22:29.048Z,5.72
2018-12-29T12:23:29.034Z,5.68
2018-12-29T12:24:29.056Z,5.74
2018-12-29T12:25:29.009Z,5.68
2018-12-29T12:26:29.053Z,5.71
2018-12-29T12:27:29.019Z,5.67
2018-12-29T12:28:28.997Z,5.82
2018-12-29T12:29:28.985Z,5.85
2018-12-29T12:30:28.950Z,5.83
2018-12-29T12:31:28.965Z,5.79
2018-12-29T12:32:28.936Z,5.85
2018-12-29T12:33:28.916Z,5.83
2018-12-29T12:34:28.935Z,5.89
2018-12-29T12:35:28.933Z,5.79
2018-12-29T12:36:28.947Z,5.81
2018-12-29T12:37:28.921Z,5.81
2018-12-29T12:38:28.875Z,5.83
2018-12-29T12:39:28.876Z,5.90
2018-12-29T12:40:28.899Z,5.75
2018-12-29T12:41:28.823Z,5.78
2018-12-29T12:42:28.817Z,5.72
2018-12-29T12:43:28.800Z,5.76
2018-12-29T12:44:28.824Z,5.75
2018-12-29T12:45:28.794Z,5.72
2018-12-29T12:46:28.786Z,5.68
2018-12-29T12:47:28.820Z,5.61
2018-12-29T12:48:28.791Z,5.64
2018-12-29T12:49:28.739Z,5.63
2018-12-29T12:50:28.727Z,5.57
2018-12-29T12:51:28.715Z,5.58
2018-12-29T12:52:28.700Z,5.49
2018-12-29T12:53:28.729Z,5.39
2018-12-29T12:54:28.685Z,5.42
2018-12-29T12:55:28.669Z,5.46
2018-12-29T12:56:28.719Z,5.43
2018-12-29T12:57:28.740Z,5.40
2018-12-29T12:58:28.643Z,5.38
2018-12-29T12:59:28.637Z,5.39
2018-12-29T13:00:28.691Z,5.35
2018-12-29T13:01:28.622Z,5.30
2018-12-29T13:02:28.596Z,5.28
2018-12-29T13:03:28.589Z,5.22
2018-12-29T13:04:28.573Z,5.30
2018-12-29T13:05:28.556Z,5.30
2018-12-29T13:06:28.567Z,5.30
2018-12-29T13:07:28.548Z,5.30
2018-12-29T13:08:28.543Z,5.25
2018-12-29T13:09:28.520Z,5.31
2018-12-29T13:10:28.530Z,5.27
2018-12-29T13:11:28.520Z,5.27
2018-12-29T13:12:28.502Z,5.27
2018-12-29T13:13:28.468Z,5.30
2018-12-29T13:14:28.521Z,5.31
2018-12-29T13:15:28.486Z,5.30
2018-12-29T13:16:28.434Z,5.33
2018-12-29T13:17:28.425Z,5.21
2018-12-29T13:18:28.416Z,5.28